sensor_id;sensor_type;location;lat;lon;timestamp;pressure;altitude;pressure_sealevel;temperature;humidity
51526;BME280;37611;51.794;21.590;2023-06-19T00:00:08;99919.30;;;14.18;100.00
51526;BME280;37611;51.794;21.590;2023-06-19T00:04:34;99915.55;;;14.18;100.00
51526;BME280;37611;51.794;21.590;2023-06-19T00:08:36;99918.21;;;14.17;100.00
51526;BME280;37611;51.794;21.590;2023-06-19T00:12:38;99921.15;;;14.13;100.00
51526;BME280;37611;51.794;21.590;2023-06-19T00:16:39;99922.38;;;14.07;100.00
51526;BME280;37611;51.794;21.590;2023-06-19T00:20:41;99921.11;;;13.94;100.00
51526;BME280;37611;51.794;21.590;2023-06-19T00:24:47;99925.30;;;13.87;100.00
51526;BME280;37611;51.794;21.590;2023-06-19T00:28:50;99922.04;;;13.85;100.00
51526;BME280;37611;51.794;21.590;2023-06-19T00:32:51;99926.97;;;13.82;100.00
51526;BME280;37611;51.794;21.590;2023-06-19T00:36:54;99935.45;;;13.79;100.00
51526;BME280;37611;51.794;21.590;2023-06-19T00:40:57;99936.72;;;13.75;100.00
51526;BME280;37611;51.794;21.590;2023-06-19T00:44:59;99936.66;;;13.74;100.00
51526;BME280;37611;51.794;21.590;2023-06-19T00:49:01;99938.08;;;13.69;100.00
51526;BME280;37611;51.794;21.590;2023-06-19T00:53:03;99933.91;;;13.68;100.00
51526;BME280;37611;51.794;21.590;2023-06-19T00:57:06;99935.91;;;13.68;100.00
51526;BME280;37611;51.794;21.590;2023-06-19T01:01:09;99933.65;;;13.66;100.00
51526;BME280;37611;51.794;21.590;2023-06-19T01:05:11;99928.17;;;13.68;100.00
51526;BME280;37611;51.794;21.590;2023-06-19T01:09:15;99925.51;;;13.64;100.00
51526;BME280;37611;51.794;21.590;2023-06-19T01:13:28;99929.58;;;13.60;100.00
51526;BME280;37611;51.794;21.590;2023-06-19T01:17:35;99929.23;;;13.46;100.00
51526;BME280;37611;51.794;21.590;2023-06-19T01:21:37;99920.81;;;13.32;100.00
51526;BME280;37611;51.794;21.590;2023-06-19T01:25:39;99918.88;;;13.26;100.00
51526;BME280;37611;51.794;21.590;2023-06-19T01:29:42;99915.41;;;13.14;100.00
51526;BME280;37611;51.794;21.590;2023-06-19T01:33:44;99912.50;;;13.07;100.00
51526;BME280;37611;51.794;21.590;2023-06-19T01:37:48;99914.30;;;13.05;100.00
51526;BME280;37611;51.794;21.590;2023-06-19T01:41:51;99922.11;;;12.93;100.00
51526;BME280;37611;51.794;21.590;2023-06-19T01:45:55;99923.04;;;12.88;100.00
51526;BME280;37611;51.794;21.590;2023-06-19T01:49:56;99927.74;;;12.82;100.00
51526;BME280;37611;51.794;21.590;2023-06-19T01:53:58;99923.97;;;12.76;100.00
51526;BME280;37611;51.794;21.590;2023-06-19T01:58:00;99926.45;;;12.81;100.00
51526;BME280;37611;51.794;21.590;2023-06-19T02:02:02;99926.48;;;12.86;100.00
51526;BME280;37611;51.794;21.590;2023-06-19T02:06:05;99924.75;;;12.81;100.00
51526;BME280;37611;51.794;21.590;2023-06-19T02:10:07;99924.76;;;12.72;100.00
51526;BME280;37611;51.794;21.590;2023-06-19T02:14:10;99923.41;;;12.68;100.00
51526;BME280;37611;51.794;21.590;2023-06-19T02:18:12;99927.11;;;12.61;100.00
51526;BME280;37611;51.794;21.590;2023-06-19T02:22:14;99928.42;;;12.60;100.00
51526;BME280;37611;51.794;21.590;2023-06-19T02:26:16;99930.41;;;12.59;100.00
51526;BME280;37611;51.794;21.590;2023-06-19T02:30:18;99930.94;;;12.56;100.00
51526;BME280;37611;51.794;21.590;2023-06-19T02:34:20;99932.16;;;12.56;100.00
51526;BME280;37611;51.794;21.590;2023-06-19T02:38:21;99933.58;;;12.53;100.00
51526;BME280;37611;51.794;21.590;2023-06-19T02:42:23;99935.12;;;12.51;100.00
51526;BME280;37611;51.794;21.590;2023-06-19T02:46:25;99933.79;;;12.47;100.00
51526;BME280;37611;51.794;21.590;2023-06-19T02:50:27;99938.55;;;12.41;100.00
51526;BME280;37611;51.794;21.590;2023-06-19T02:54:29;99938.45;;;12.40;100.00
51526;BME280;37611;51.794;21.590;2023-06-19T02:58:31;99941.40;;;12.41;100.00
51526;BME280;37611;51.794;21.590;2023-06-19T03:02:33;99942.87;;;12.37;100.00
51526;BME280;37611;51.794;21.590;2023-06-19T03:06:35;99946.13;;;12.41;100.00
51526;BME280;37611;51.794;21.590;2023-06-19T03:10:41;99949.00;;;12.46;100.00
51526;BME280;37611;51.794;21.590;2023-06-19T03:14:43;99944.98;;;12.54;100.00
51526;BME280;37611;51.794;21.590;2023-06-19T03:18:45;99940.09;;;12.62;100.00
51526;BME280;37611;51.794;21.590;2023-06-19T03:22:47;99939.20;;;12.64;100.00
51526;BME280;37611;51.794;21.590;2023-06-19T03:26:49;99941.75;;;12.67;100.00
51526;BME280;37611;51.794;21.590;2023-06-19T03:30:51;99941.67;;;12.81;100.00
51526;BME280;37611;51.794;21.590;2023-06-19T03:34:54;99944.61;;;12.96;100.00
51526;BME280;37611;51.794;21.590;2023-06-19T03:38:57;99942.95;;;13.10;100.00
51526;BME280;37611;51.794;21.590;2023-06-19T03:42:59;99946.65;;;13.24;100.00
51526;BME280;37611;51.794;21.590;2023-06-19T03:47:01;99947.34;;;13.43;100.00
51526;BME280;37611;51.794;21.590;2023-06-19T03:51:03;99945.84;;;13.54;100.00
51526;BME280;37611;51.794;21.590;2023-06-19T03:55:05;99946.70;;;13.68;100.00
51526;BME280;37611;51.794;21.590;2023-06-19T03:59:07;99940.94;;;13.92;100.00
51526;BME280;37611;51.794;21.590;2023-06-19T04:03:09;99943.99;;;14.22;100.00
51526;BME280;37611;51.794;21.590;2023-06-19T04:07:11;99944.66;;;14.51;100.00
51526;BME280;37611;51.794;21.590;2023-06-19T04:11:13;99945.58;;;14.78;100.00
51526;BME280;37611;51.794;21.590;2023-06-19T04:15:15;99951.02;;;15.14;100.00
51526;BME280;37611;51.794;21.590;2023-06-19T04:19:17;99951.20;;;15.54;100.00
51526;BME280;37611;51.794;21.590;2023-06-19T04:23:19;99954.13;;;15.98;100.00
51526;BME280;37611;51.794;21.590;2023-06-19T04:27:21;99955.97;;;16.33;100.00
51526;BME280;37611;51.794;21.590;2023-06-19T04:31:23;99960.63;;;16.60;100.00
51526;BME280;37611;51.794;21.590;2023-06-19T04:35:25;99962.59;;;16.96;100.00
51526;BME280;37611;51.794;21.590;2023-06-19T04:39:27;99965.09;;;17.25;100.00
51526;BME280;37611;51.794;21.590;2023-06-19T04:43:28;99967.21;;;17.53;100.00
51526;BME280;37611;51.794;21.590;2023-06-19T04:47:31;99969.35;;;17.86;100.00
51526;BME280;37611;51.794;21.590;2023-06-19T04:51:32;99965.07;;;18.19;100.00
51526;BME280;37611;51.794;21.590;2023-06-19T04:55:34;99966.27;;;18.41;100.00
51526;BME280;37611;51.794;21.590;2023-06-19T04:59:36;99968.73;;;18.60;100.00
51526;BME280;37611;51.794;21.590;2023-06-19T05:03:39;99965.84;;;18.64;100.00
51526;BME280;37611;51.794;21.590;2023-06-19T05:07:41;99969.94;;;18.80;100.00
51526;BME280;37611;51.794;21.590;2023-06-19T05:11:43;99969.29;;;18.96;100.00
51526;BME280;37611;51.794;21.590;2023-06-19T05:15:45;99973.83;;;19.08;100.00
51526;BME280;37611;51.794;21.590;2023-06-19T05:19:49;99978.52;;;19.32;99.98
51526;BME280;37611;51.794;21.590;2023-06-19T05:23:51;99984.22;;;19.54;98.38
51526;BME280;37611;51.794;21.590;2023-06-19T05:27:54;99989.78;;;19.64;97.30
51526;BME280;37611;51.794;21.590;2023-06-19T05:31:56;99993.25;;;19.70;96.80
51526;BME280;37611;51.794;21.590;2023-06-19T05:35:59;99997.16;;;19.58;96.26
51526;BME280;37611;51.794;21.590;2023-06-19T05:40:03;99994.89;;;19.67;96.44
51526;BME280;37611;51.794;21.590;2023-06-19T05:44:05;99999.66;;;19.65;95.89
51526;BME280;37611;51.794;21.590;2023-06-19T05:48:07;99999.11;;;19.69;95.74
51526;BME280;37611;51.794;21.590;2023-06-19T05:52:08;99997.04;;;19.75;95.51
51526;BME280;37611;51.794;21.590;2023-06-19T05:56:10;99996.94;;;19.80;95.09
51526;BME280;37611;51.794;21.590;2023-06-19T06:00:13;99997.95;;;19.90;94.82
51526;BME280;37611;51.794;21.590;2023-06-19T06:04:18;99998.40;;;20.02;94.34
51526;BME280;37611;51.794;21.590;2023-06-19T06:08:19;100004.71;;;20.08;93.35
51526;BME280;37611;51.794;21.590;2023-06-19T06:12:21;100010.89;;;20.03;92.34
51526;BME280;37611;51.794;21.590;2023-06-19T06:16:23;100015.95;;;19.98;92.65
51526;BME280;37611;51.794;21.590;2023-06-19T06:20:25;100014.45;;;20.02;91.85
51526;BME280;37611;51.794;21.590;2023-06-19T06:24:26;100015.69;;;20.02;90.95
51526;BME280;37611;51.794;21.590;2023-06-19T06:28:28;100019.95;;;20.01;90.58
51526;BME280;37611;51.794;21.590;2023-06-19T06:32:30;100024.16;;;20.12;90.61
51526;BME280;37611;51.794;21.590;2023-06-19T06:36:32;100028.19;;;20.10;89.75
51526;BME280;37611;51.794;21.590;2023-06-19T06:40:34;100033.64;;;20.12;90.41
51526;BME280;37611;51.794;21.590;2023-06-19T06:44:36;100039.73;;;20.25;89.37
51526;BME280;37611;51.794;21.590;2023-06-19T06:48:37;100040.09;;;20.39;88.38
51526;BME280;37611;51.794;21.590;2023-06-19T06:52:40;100044.54;;;20.45;88.52
51526;BME280;37611;51.794;21.590;2023-06-19T06:56:42;100045.35;;;20.55;86.81
51526;BME280;37611;51.794;21.590;2023-06-19T07:00:44;100047.56;;;20.61;85.49
51526;BME280;37611;51.794;21.590;2023-06-19T07:04:46;100046.55;;;20.74;85.23
51526;BME280;37611;51.794;21.590;2023-06-19T07:08:47;100046.49;;;20.84;83.21
51526;BME280;37611;51.794;21.590;2023-06-19T07:12:49;100042.27;;;20.91;84.18
51526;BME280;37611;51.794;21.590;2023-06-19T07:16:52;100039.35;;;21.05;86.30
51526;BME280;37611;51.794;21.590;2023-06-19T07:20:54;100036.84;;;21.29;84.12
51526;BME280;37611;51.794;21.590;2023-06-19T07:24:56;100032.15;;;21.34;81.48
51526;BME280;37611;51.794;21.590;2023-06-19T07:28:58;100032.10;;;21.43;81.99
51526;BME280;37611;51.794;21.590;2023-06-19T07:33:00;100031.35;;;21.52;80.81
51526;BME280;37611;51.794;21.590;2023-06-19T07:37:02;100032.64;;;21.58;80.28
51526;BME280;37611;51.794;21.590;2023-06-19T07:41:04;100032.61;;;21.64;80.29
51526;BME280;37611;51.794;21.590;2023-06-19T07:45:06;100036.52;;;21.76;80.38
51526;BME280;37611;51.794;21.590;2023-06-19T07:49:07;100037.45;;;21.90;81.22
51526;BME280;37611;51.794;21.590;2023-06-19T07:53:10;100038.73;;;22.08;80.05
51526;BME280;37611;51.794;21.590;2023-06-19T07:57:11;100038.61;;;21.97;80.20
51526;BME280;37611;51.794;21.590;2023-06-19T08:01:13;100037.71;;;22.13;81.00
51526;BME280;37611;51.794;21.590;2023-06-19T08:05:16;100032.27;;;22.31;80.54
51526;BME280;37611;51.794;21.590;2023-06-19T08:09:17;100036.01;;;22.31;80.28
51526;BME280;37611;51.794;21.590;2023-06-19T08:13:19;100036.35;;;22.49;81.69
51526;BME280;37611;51.794;21.590;2023-06-19T08:17:21;100034.91;;;22.75;81.16
51526;BME280;37611;51.794;21.590;2023-06-19T08:21:23;100036.25;;;22.92;80.54
51526;BME280;37611;51.794;21.590;2023-06-19T08:25:26;100037.61;;;23.12;80.76
51526;BME280;37611;51.794;21.590;2023-06-19T08:29:27;100039.19;;;23.27;79.75
51526;BME280;37611;51.794;21.590;2023-06-19T08:33:29;100037.64;;;23.39;78.46
51526;BME280;37611;51.794;21.590;2023-06-19T08:37:31;100039.66;;;23.41;76.02
51526;BME280;37611;51.794;21.590;2023-06-19T08:41:35;100037.77;;;23.18;73.58
51526;BME280;37611;51.794;21.590;2023-06-19T08:45:37;100042.03;;;23.01;74.52
51526;BME280;37611;51.794;21.590;2023-06-19T08:49:39;100042.64;;;22.97;74.84
51526;BME280;37611;51.794;21.590;2023-06-19T08:53:47;100045.12;;;23.16;75.95
51526;BME280;37611;51.794;21.590;2023-06-19T08:57:50;100046.21;;;23.40;75.15
51526;BME280;37611;51.794;21.590;2023-06-19T09:01:54;100043.40;;;23.56;75.01
51526;BME280;37611;51.794;21.590;2023-06-19T09:05:58;100045.66;;;23.71;74.98
51526;BME280;37611;51.794;21.590;2023-06-19T09:10:00;100041.46;;;23.78;74.76
51526;BME280;37611;51.794;21.590;2023-06-19T09:14:12;100040.29;;;23.89;73.34
51526;BME280;37611;51.794;21.590;2023-06-19T09:18:14;100037.95;;;23.87;72.70
51526;BME280;37611;51.794;21.590;2023-06-19T09:22:17;100033.48;;;23.89;72.52
51526;BME280;37611;51.794;21.590;2023-06-19T09:26:22;100037.95;;;23.90;71.88
51526;BME280;37611;51.794;21.590;2023-06-19T09:30:24;100034.88;;;23.83;72.06
51526;BME280;37611;51.794;21.590;2023-06-19T09:34:26;100038.13;;;23.93;72.20
51526;BME280;37611;51.794;21.590;2023-06-19T09:38:30;100040.27;;;24.10;71.37
51526;BME280;37611;51.794;21.590;2023-06-19T09:42:34;100042.81;;;24.11;70.91
51526;BME280;37611;51.794;21.590;2023-06-19T09:46:37;100039.69;;;24.07;71.77
51526;BME280;37611;51.794;21.590;2023-06-19T09:50:39;100036.38;;;24.20;71.39
51526;BME280;37611;51.794;21.590;2023-06-19T09:54:43;100034.28;;;24.24;70.33
51526;BME280;37611;51.794;21.590;2023-06-19T09:58:46;100035.23;;;24.29;72.01
51526;BME280;37611;51.794;21.590;2023-06-19T10:02:49;100033.29;;;24.55;71.32
51526;BME280;37611;51.794;21.590;2023-06-19T10:06:51;100031.50;;;24.77;70.78
51526;BME280;37611;51.794;21.590;2023-06-19T10:11:00;100029.84;;;24.70;69.37
51526;BME280;37611;51.794;21.590;2023-06-19T10:15:16;100028.60;;;24.59;69.25
51526;BME280;37611;51.794;21.590;2023-06-19T10:19:21;100025.48;;;24.76;70.74
51526;BME280;37611;51.794;21.590;2023-06-19T10:23:25;100023.95;;;25.00;69.46
51526;BME280;37611;51.794;21.590;2023-06-19T10:27:34;100022.99;;;25.07;69.01
51526;BME280;37611;51.794;21.590;2023-06-19T10:31:42;100020.96;;;25.34;69.11
51526;BME280;37611;51.794;21.590;2023-06-19T10:35:47;100016.66;;;25.55;68.45
51526;BME280;37611;51.794;21.590;2023-06-19T10:39:49;100010.27;;;25.56;67.12
51526;BME280;37611;51.794;21.590;2023-06-19T10:44:04;100011.96;;;25.71;67.05
51526;BME280;37611;51.794;21.590;2023-06-19T10:48:07;100011.13;;;25.90;66.53
51526;BME280;37611;51.794;21.590;2023-06-19T10:52:10;100007.55;;;26.04;65.29
51526;BME280;37611;51.794;21.590;2023-06-19T10:56:12;100003.08;;;25.97;65.40
51526;BME280;37611;51.794;21.590;2023-06-19T14:45:10;99871.63;;;26.47;49.07
51526;BME280;37611;51.794;21.590;2023-06-19T15:28:06;99877.34;;;25.50;52.38
51526;BME280;37611;51.794;21.590;2023-06-19T15:32:09;99874.41;;;25.41;52.66
51526;BME280;37611;51.794;21.590;2023-06-19T15:36:11;99870.23;;;25.33;53.61
51526;BME280;37611;51.794;21.590;2023-06-19T15:40:12;99871.79;;;25.22;54.24
51526;BME280;37611;51.794;21.590;2023-06-19T15:44:15;99870.08;;;25.14;54.38
51526;BME280;37611;51.794;21.590;2023-06-19T15:48:17;99869.54;;;25.09;54.44
51526;BME280;37611;51.794;21.590;2023-06-19T20:09:12;99971.71;;;19.95;78.84
51526;BME280;37611;51.794;21.590;2023-06-19T21:55:12;99979.02;;;18.25;89.97
51526;BME280;37611;51.794;21.590;2023-06-19T21:59:16;99979.67;;;18.18;90.36
51526;BME280;37611;51.794;21.590;2023-06-19T22:03:18;99978.63;;;18.04;91.01
51526;BME280;37611;51.794;21.590;2023-06-19T22:07:21;99976.54;;;17.90;91.60
51526;BME280;37611;51.794;21.590;2023-06-19T22:11:23;99977.66;;;17.82;92.53
51526;BME280;37611;51.794;21.590;2023-06-19T22:15:26;99972.29;;;17.74;93.12
51526;BME280;37611;51.794;21.590;2023-06-19T22:19:27;99974.66;;;17.73;93.34
51526;BME280;37611;51.794;21.590;2023-06-19T22:23:29;99974.40;;;17.71;93.91
51526;BME280;37611;51.794;21.590;2023-06-19T22:27:31;99978.11;;;17.69;94.09
51526;BME280;37611;51.794;21.590;2023-06-19T22:31:34;99979.58;;;17.65;94.42
51526;BME280;37611;51.794;21.590;2023-06-19T22:35:36;99987.52;;;17.61;94.85
51526;BME280;37611;51.794;21.590;2023-06-19T22:39:38;99988.33;;;17.59;95.01
